Time;durP1;ratioP1;P1;durP2;ratioP2;P2;SDS_P1;SDS_P2;PMS_P1;PMS_P2;Temp;Humidity;BMP_temperature;BMP_pressure;BME280_temperature;BME280_humidity;BME280_pressure;Samples;Min_cycle;Max_cycle;Signal;HPM_P1;HPM_P2
2021/12/16 00:01:50;;;;;;;19.75;11.35;;;;;;;;;;5007853;28;20038;-76
2021/12/16 00:29:22;;;;;;;20.42;12.23;;;;;;;;;;4998245;28;20461;-76
2021/12/16 00:34:31;;;;;;;23.60;12.43;;;;;;;;;;4994370;28;20033;-76
2021/12/16 00:36:58;;;;;;;22.08;12.05;;;;;;;;;;4992980;28;20045;-76
2021/12/16 00:39:29;;;;;;;21.52;12.18;;;;;;;;;;4992894;28;20477;-76
2021/12/16 00:42:02;;;;;;;22.27;13.15;;;;;;;;;;4993728;28;20061;-76
2021/12/16 00:49:42;;;;;;;21.33;12.25;;;;;;;;;;4993024;28;20031;-76
2021/12/16 00:55:04;;;;;;;23.17;13.40;;;;;;;;;;4993040;28;20027;-76
2021/12/16 00:57:31;;;;;;;21.25;12.55;;;;;;;;;;4992620;28;20039;-76
2021/12/16 01:00:00;;;;;;;22.13;12.52;;;;;;;;;;4993323;28;20034;-76
2021/12/16 01:40:41;;;;;;;21.27;13.02;;;;;;;;;;4995867;28;20398;-76
2021/12/16 01:51:24;;;;;;;23.10;13.50;;;;;;;;;;4993793;28;20030;-77
2021/12/16 01:55:04;;;;;;;23.05;13.77;;;;;;;;;;4990957;28;20037;-77
2021/12/16 01:57:10;;;;;;;19.85;12.43;;;;;;;;;;4987812;28;20046;-76
2021/12/16 01:59:39;;;;;;;22.35;13.23;;;;;;;;;;4990792;28;20444;-77
2021/12/16 02:02:15;;;;;;;25.33;13.20;;;;;;;;;;4990758;28;20038;-77
2021/12/16 02:05:05;;;;;;;23.88;13.57;;;;;;;;;;4990638;28;20141;-77
2021/12/16 02:10:27;;;;;;;20.83;13.02;;;;;;;;;;4982516;28;20046;-77
2021/12/16 02:29:46;;;;;;;25.00;13.27;;;;;;;;;;4990724;28;20034;-76
2021/12/16 02:37:23;;;;;;;22.75;13.80;;;;;;;;;;4991569;28;20472;-76
2021/12/16 02:39:50;;;;;;;25.63;13.75;;;;;;;;;;4990625;28;20064;-76
2021/12/16 02:42:22;;;;;;;22.35;13.43;;;;;;;;;;4989315;28;20457;-76
2021/12/16 02:50:17;;;;;;;24.90;13.70;;;;;;;;;;4991097;28;20034;-76
2021/12/16 02:52:43;;;;;;;23.35;12.93;;;;;;;;;;4990661;28;20330;-76
2021/12/16 02:55:11;;;;;;;23.42;13.82;;;;;;;;;;4990014;28;20054;-76
2021/12/16 02:57:47;;;;;;;23.20;13.23;;;;;;;;;;4990796;28;20046;-76
2021/12/16 03:00:15;;;;;;;25.83;13.43;;;;;;;;;;4990746;28;20396;-76
2021/12/16 03:02:46;;;;;;;23.98;13.40;;;;;;;;;;4991110;28;20042;-76
2021/12/16 03:05:13;;;;;;;22.83;13.48;;;;;;;;;;4990841;28;20122;-76
2021/12/16 03:07:39;;;;;;;25.90;13.68;;;;;;;;;;4989991;28;20034;-76
2021/12/16 03:10:42;;;;;;;24.75;14.18;;;;;;;;;;4990301;28;20038;-76
2021/12/16 03:13:04;;;;;;;24.65;13.75;;;;;;;;;;4989990;28;20030;-76
2021/12/16 03:18:37;;;;;;;25.20;14.38;;;;;;;;;;4997116;28;20045;-76
2021/12/16 03:21:05;;;;;;;23.05;13.43;;;;;;;;;;4993800;28;20515;-75
2021/12/16 03:28:55;;;;;;;24.60;13.88;;;;;;;;;;4994336;28;20030;-76
2021/12/16 03:37:15;;;;;;;;;;;;;;;;;;4987212;28;20035;-76
2021/12/16 03:40:07;;;;;;;24.90;13.35;;;;;;;;;;4973781;28;19914;-75
2021/12/16 03:42:35;;;;;;;22.63;13.40;;;;;;;;;;4956075;28;20057;-75
2021/12/16 03:48:05;;;;;;;23.52;13.88;;;;;;;;;;4975442;28;20050;-76
2021/12/16 03:50:32;;;;;;;23.02;13.38;;;;;;;;;;4973537;28;20046;-77
2021/12/16 03:52:58;;;;;;;22.58;12.93;;;;;;;;;;4972173;28;20043;-76
2021/12/16 03:55:24;;;;;;;27.83;14.57;;;;;;;;;;4973655;28;20042;-76
2021/12/16 03:57:50;;;;;;;25.30;14.15;;;;;;;;;;4973402;28;20488;-76
2021/12/16 04:00:24;;;;;;;24.77;13.45;;;;;;;;;;4973498;28;20042;-76
2021/12/16 04:02:51;;;;;;;21.75;13.10;;;;;;;;;;4972325;28;20035;-77
2021/12/16 04:05:21;;;;;;;24.67;14.80;;;;;;;;;;4973703;28;20035;-77
2021/12/16 04:07:48;;;;;;;22.58;12.60;;;;;;;;;;4973393;28;20465;-76
2021/12/16 04:10:19;;;;;;;21.33;12.60;;;;;;;;;;4973326;28;20043;-77
2021/12/16 04:12:45;;;;;;;23.08;13.23;;;;;;;;;;4973222;28;20057;-77
2021/12/16 04:15:12;;;;;;;24.42;13.82;;;;;;;;;;4973566;28;20069;-77
2021/12/16 04:17:38;;;;;;;19.88;12.05;;;;;;;;;;4973557;28;20042;-76
2021/12/16 04:20:08;;;;;;;22.80;13.32;;;;;;;;;;4972020;28;20505;-76
2021/12/16 04:22:41;;;;;;;24.10;13.53;;;;;;;;;;4973313;28;20053;-76
2021/12/16 04:25:12;;;;;;;23.73;13.40;;;;;;;;;;4973143;28;20066;-76
2021/12/16 04:27:38;;;;;;;25.88;12.95;;;;;;;;;;4972318;28;20405;-76
2021/12/16 04:30:06;;;;;;;23.52;13.00;;;;;;;;;;4974511;28;20378;-76
2021/12/16 04:32:33;;;;;;;20.75;12.98;;;;;;;;;;4990706;28;20042;-77
2021/12/16 04:34:59;;;;;;;22.60;13.20;;;;;;;;;;4991118;28;20034;-76
2021/12/16 04:37:25;;;;;;;22.15;12.82;;;;;;;;;;4992036;28;20050;-76
2021/12/16 04:39:51;;;;;;;22.15;13.45;;;;;;;;;;4991968;28;20084;-77
2021/12/16 04:42:19;;;;;;;25.40;13.60;;;;;;;;;;4992077;28;20046;-76
2021/12/16 04:44:46;;;;;;;23.08;13.77;;;;;;;;;;4990508;28;20480;-76
2021/12/16 04:47:12;;;;;;;23.88;13.18;;;;;;;;;;4991719;28;20038;-76
2021/12/16 04:49:39;;;;;;;21.63;13.40;;;;;;;;;;4991886;28;20472;-76
2021/12/16 04:52:11;;;;;;;27.92;15.70;;;;;;;;;;4991767;28;20042;-76
2021/12/16 04:54:37;;;;;;;23.67;13.70;;;;;;;;;;4990090;28;20042;-77
2021/12/16 04:57:04;;;;;;;24.90;14.23;;;;;;;;;;4991915;28;20042;-76
2021/12/16 04:59:32;;;;;;;23.83;13.68;;;;;;;;;;4991724;28;20504;-76
2021/12/16 05:02:21;;;;;;;21.10;13.40;;;;;;;;;;4986285;28;20053;-77
2021/12/16 05:04:47;;;;;;;23.42;13.85;;;;;;;;;;4987050;28;20413;-77
2021/12/16 05:07:14;;;;;;;25.67;14.68;;;;;;;;;;4991416;28;20046;-76
2021/12/16 05:10:03;;;;;;;22.25;14.10;;;;;;;;;;4990338;28;20039;-76
2021/12/16 05:12:28;;;;;;;25.02;14.90;;;;;;;;;;4989091;28;20061;-75
2021/12/16 05:14:54;;;;;;;24.92;14.75;;;;;;;;;;4990722;28;20042;-75
2021/12/16 05:17:28;;;;;;;35.65;21.23;;;;;;;;;;4990206;28;20026;-76
2021/12/16 05:19:56;;;;;;;28.70;18.13;;;;;;;;;;4983722;28;20516;-76
2021/12/16 05:25:17;;;;;;;27.88;17.60;;;;;;;;;;4988947;28;20046;-76
2021/12/16 05:27:46;;;;;;;30.02;19.13;;;;;;;;;;4989058;28;20062;-78
2021/12/16 05:30:13;;;;;;;27.80;16.48;;;;;;;;;;4987777;28;20026;-76
2021/12/16 05:32:45;;;;;;;26.50;15.75;;;;;;;;;;4989551;28;20372;-76
2021/12/16 05:35:16;;;;;;;25.23;15.30;;;;;;;;;;4987350;28;20233;-77
2021/12/16 05:37:44;;;;;;;22.75;13.93;;;;;;;;;;5001653;28;20713;-76
2021/12/16 05:40:15;;;;;;;23.80;14.38;;;;;;;;;;5010087;28;20041;-77
2021/12/16 05:42:41;;;;;;;26.57;16.70;;;;;;;;;;5014382;28;20034;-77
2021/12/16 05:45:09;;;;;;;27.17;14.63;;;;;;;;;;5014479;28;20445;-77
2021/12/16 05:47:36;;;;;;;24.25;14.20;;;;;;;;;;5014236;28;20042;-76
2021/12/16 05:50:06;;;;;;;26.85;13.15;;;;;;;;;;5005623;28;20031;-76
2021/12/16 05:52:32;;;;;;;25.65;15.27;;;;;;;;;;5007125;28;20353;-76
2021/12/16 05:54:58;;;;;;;26.55;13.88;;;;;;;;;;5011699;28;20027;-81
2021/12/16 05:57:24;;;;;;;22.33;12.88;;;;;;;;;;5015720;28;20069;-80
2021/12/16 05:59:50;;;;;;;23.50;13.57;;;;;;;;;;5016463;28;20036;-81
2021/12/16 06:02:16;;;;;;;30.95;18.05;;;;;;;;;;5010880;28;20042;-80
2021/12/16 06:04:42;;;;;;;26.60;15.73;;;;;;;;;;5014819;28;20053;-74
2021/12/16 06:07:08;;;;;;;31.40;16.75;;;;;;;;;;4994278;28;20065;-70
2021/12/16 06:09:33;;;;;;;29.60;15.65;;;;;;;;;;4991237;28;20629;-70
2021/12/16 06:12:00;;;;;;;34.45;17.33;;;;;;;;;;4989575;28;20587;-70
2021/12/16 06:14:49;;;;;;;25.23;14.32;;;;;;;;;;5001764;28;20058;-75
2021/12/16 06:28:03;;;;;;;23.65;13.93;;;;;;;;;;4974157;28;20027;-77
2021/12/16 06:30:33;;;;;;;21.50;12.45;;;;;;;;;;4992149;28;20503;-78
2021/12/16 06:33:00;;;;;;;21.80;12.30;;;;;;;;;;4993221;28;20046;-80
2021/12/16 06:35:27;;;;;;;23.50;13.70;;;;;;;;;;4993510;28;20034;-80
2021/12/16 06:37:53;;;;;;;22.98;13.18;;;;;;;;;;4993049;28;20473;-80
2021/12/16 06:40:20;;;;;;;22.98;12.90;;;;;;;;;;4991789;28;20058;-80
2021/12/16 06:42:48;;;;;;;24.17;13.45;;;;;;;;;;4994018;28;20047;-80
2021/12/16 06:45:23;;;;;;;23.83;13.73;;;;;;;;;;4993909;28;20464;-80
2021/12/16 06:47:55;;;;;;;25.33;14.25;;;;;;;;;;4993796;28;20057;-80
2021/12/16 06:50:44;;;;;;;27.23;16.67;;;;;;;;;;4990899;28;20034;-80
2021/12/16 06:53:13;;;;;;;39.67;22.58;;;;;;;;;;4983849;28;20042;-80
2021/12/16 06:55:46;;;;;;;27.52;15.07;;;;;;;;;;4988948;28;20054;-81
2021/12/16 07:00:48;;;;;;;27.17;16.33;;;;;;;;;;4992356;28;20023;-79
2021/12/16 07:03:19;;;;;;;24.70;14.57;;;;;;;;;;4985800;28;20380;-80
2021/12/16 07:05:52;;;;;;;29.30;15.82;;;;;;;;;;4990844;28;20059;-80
2021/12/16 07:08:22;;;;;;;26.23;15.60;;;;;;;;;;4978484;28;20381;-80
2021/12/16 07:10:51;;;;;;;26.38;15.90;;;;;;;;;;4992953;28;20050;-79
2021/12/16 07:13:28;;;;;;;26.25;15.75;;;;;;;;;;4983621;28;20038;-79
2021/12/16 07:15:54;;;;;;;24.48;14.60;;;;;;;;;;4990861;28;20049;-80
2021/12/16 07:18:20;;;;;;;25.38;15.73;;;;;;;;;;4989436;28;20130;-80
2021/12/16 07:20:46;;;;;;;25.35;15.75;;;;;;;;;;4994307;28;20073;-80
2021/12/16 07:23:12;;;;;;;27.92;16.10;;;;;;;;;;4984091;28;20542;-80
2021/12/16 07:25:38;;;;;;;28.15;15.57;;;;;;;;;;4978416;28;20139;-80
2021/12/16 07:28:07;;;;;;;29.73;15.38;;;;;;;;;;4984671;28;20019;-80
2021/12/16 07:30:38;;;;;;;26.70;14.68;;;;;;;;;;4980476;28;20051;-80
2021/12/16 07:33:05;;;;;;;;;;;;;;;;;;4984997;28;20605;-80
2021/12/16 07:35:31;;;;;;;28.25;15.52;;;;;;;;;;4996131;28;19921;-80
2021/12/16 07:37:58;;;;;;;24.15;14.77;;;;;;;;;;4987423;28;20034;-78
2021/12/16 07:40:26;;;;;;;24.80;15.18;;;;;;;;;;4975247;28;20039;-77
2021/12/16 07:45:44;;;;;;;29.25;14.38;;;;;;;;;;4979612;28;20372;-78
2021/12/16 07:48:12;;;;;;;24.27;14.00;;;;;;;;;;4985054;28;20054;-78
2021/12/16 07:50:45;;;;;;;25.90;14.90;;;;;;;;;;4987409;28;20023;-77
2021/12/16 07:53:11;;;;;;;28.92;15.20;;;;;;;;;;4989724;28;20031;-77
2021/12/16 07:55:39;;;;;;;26.98;16.30;;;;;;;;;;4993399;28;20026;-76
2021/12/16 07:58:04;;;;;;;31.77;17.33;;;;;;;;;;4987703;28;20042;-77
2021/12/16 08:00:34;;;;;;;30.60;16.38;;;;;;;;;;4976511;28;20073;-78
2021/12/16 08:03:06;;;;;;;27.83;15.75;;;;;;;;;;4983427;28;20035;-79
2021/12/16 08:05:37;;;;;;;28.80;16.88;;;;;;;;;;4987127;28;20035;-78
2021/12/16 08:08:04;;;;;;;29.00;16.48;;;;;;;;;;4989094;28;20041;-79
2021/12/16 08:10:30;;;;;;;33.40;16.92;;;;;;;;;;4985918;28;20409;-79
2021/12/16 08:12:57;;;;;;;29.20;15.57;;;;;;;;;;4993086;28;20405;-75
2021/12/16 08:15:23;;;;;;;27.00;16.10;;;;;;;;;;4991517;28;20038;-78
2021/12/16 08:17:50;;;;;;;26.27;15.70;;;;;;;;;;4978609;28;20018;-77
2021/12/16 08:20:18;;;;;;;26.63;15.05;;;;;;;;;;4988216;28;20034;-77
2021/12/16 08:22:47;;;;;;;29.55;15.07;;;;;;;;;;4988498;28;20485;-77
2021/12/16 08:25:13;;;;;;;22.70;14.02;;;;;;;;;;4992204;28;20053;-82
2021/12/16 08:27:39;;;;;;;24.45;14.63;;;;;;;;;;4986435;28;20045;-79
2021/12/16 08:30:08;;;;;;;27.17;14.63;;;;;;;;;;4991627;28;20496;-79
2021/12/16 08:32:34;;;;;;;24.42;14.52;;;;;;;;;;4991812;28;20628;-79
2021/12/16 08:35:01;;;;;;;23.45;13.05;;;;;;;;;;4990405;28;20412;-79
2021/12/16 08:37:27;;;;;;;24.55;14.05;;;;;;;;;;4986517;28;20046;-79
2021/12/16 08:39:53;;;;;;;23.60;13.80;;;;;;;;;;4992847;28;20087;-80
2021/12/16 08:42:19;;;;;;;24.33;14.10;;;;;;;;;;4995359;28;20041;-79
2021/12/16 08:44:46;;;;;;;24.25;13.95;;;;;;;;;;4993653;28;20041;-79
2021/12/16 08:47:15;;;;;;;24.35;13.40;;;;;;;;;;4989042;28;20477;-79
2021/12/16 08:49:41;;;;;;;20.13;13.25;;;;;;;;;;4992975;28;20397;-80
2021/12/16 08:52:12;;;;;;;25.25;13.18;;;;;;;;;;4991891;28;20053;-79
2021/12/16 08:54:38;;;;;;;23.67;14.52;;;;;;;;;;4990987;28;20046;-79
2021/12/16 08:57:04;;;;;;;20.30;12.07;;;;;;;;;;4991381;28;20054;-79
2021/12/16 08:59:30;;;;;;;21.65;12.95;;;;;;;;;;4990830;28;20054;-79
2021/12/16 09:01:58;;;;;;;20.25;11.95;;;;;;;;;;4989767;28;20047;-79
2021/12/16 09:04:26;;;;;;;22.30;11.70;;;;;;;;;;4991441;28;20049;-79
2021/12/16 09:06:54;;;;;;;21.75;12.90;;;;;;;;;;4977384;28;20481;-79
2021/12/16 09:09:20;;;;;;;24.58;13.20;;;;;;;;;;4972837;28;20062;-79
2021/12/16 09:12:03;;;;;;;25.35;12.73;;;;;;;;;;4973455;28;20421;-79
2021/12/16 09:14:30;;;;;;;26.83;14.10;;;;;;;;;;4972736;28;20043;-79
2021/12/16 09:16:56;;;;;;;21.40;12.80;;;;;;;;;;4973502;28;20050;-79
2021/12/16 09:19:22;;;;;;;22.95;13.52;;;;;;;;;;4991784;28;20057;-79
2021/12/16 09:21:48;;;;;;;24.73;13.95;;;;;;;;;;4991035;28;20535;-79
2021/12/16 09:24:14;;;;;;;20.50;13.20;;;;;;;;;;4992397;28;20054;-79
2021/12/16 09:26:42;;;;;;;24.95;13.95;;;;;;;;;;4983716;28;20047;-79
2021/12/16 09:29:09;;;;;;;21.60;12.88;;;;;;;;;;4972973;28;20043;-79
2021/12/16 09:31:35;;;;;;;22.38;13.38;;;;;;;;;;4973077;28;20039;-79
2021/12/16 09:34:05;;;;;;;22.95;13.20;;;;;;;;;;4975339;28;20392;-79
2021/12/16 09:36:33;;;;;;;19.52;12.32;;;;;;;;;;4991197;28;20050;-79
2021/12/16 09:38:59;;;;;;;22.45;12.70;;;;;;;;;;4973436;28;20058;-79
2021/12/16 09:41:27;;;;;;;19.85;12.60;;;;;;;;;;4955689;28;20035;-79
2021/12/16 09:43:54;;;;;;;21.50;14.38;;;;;;;;;;4979972;28;20030;-79
2021/12/16 09:46:24;;;;;;;22.90;14.45;;;;;;;;;;4979567;28;20397;-79
2021/12/16 09:48:51;;;;;;;21.85;13.27;;;;;;;;;;4979837;28;20038;-78
2021/12/16 09:51:23;;;;;;;23.20;13.73;;;;;;;;;;4984587;28;20493;-78
2021/12/16 09:53:55;;;;;;;19.95;13.38;;;;;;;;;;4991361;28;20065;-78
2021/12/16 09:56:23;;;;;;;21.20;13.05;;;;;;;;;;4991754;28;20038;-78
2021/12/16 09:58:50;;;;;;;21.52;13.27;;;;;;;;;;4983931;28;20034;-78
2021/12/16 10:01:17;;;;;;;22.60;12.73;;;;;;;;;;4982230;28;20099;-79
2021/12/16 10:03:46;;;;;;;21.88;12.63;;;;;;;;;;4987240;28;20026;-79
2021/12/16 10:06:14;;;;;;;22.75;12.77;;;;;;;;;;4974051;28;20035;-79
2021/12/16 10:08:40;;;;;;;20.95;12.55;;;;;;;;;;4978875;28;20384;-78
2021/12/16 10:11:08;;;;;;;18.83;11.70;;;;;;;;;;4988629;28;20050;-78
2021/12/16 10:13:45;;;;;;;20.25;12.45;;;;;;;;;;4991133;28;20374;-79
2021/12/16 10:18:38;;;;;;;21.92;12.77;;;;;;;;;;4986407;28;20413;-79
2021/12/16 10:21:07;;;;;;;22.50;12.63;;;;;;;;;;4980896;28;20381;-78
2021/12/16 10:23:35;;;;;;;23.20;13.35;;;;;;;;;;4979201;28;20058;-78
2021/12/16 10:26:19;;;;;;;21.77;13.15;;;;;;;;;;4990300;28;20409;-79
2021/12/16 10:28:52;;;;;;;22.08;13.00;;;;;;;;;;4988093;28;20054;-79
2021/12/16 10:31:34;;;;;;;24.63;14.25;;;;;;;;;;5016191;28;20022;-79
2021/12/16 10:34:07;;;;;;;24.08;13.93;;;;;;;;;;5010257;28;20042;-79
2021/12/16 10:36:45;;;;;;;26.13;14.23;;;;;;;;;;5015426;28;20035;-81
2021/12/16 10:39:13;;;;;;;22.80;13.80;;;;;;;;;;5004690;28;20473;-78
2021/12/16 10:41:46;;;;;;;26.20;13.77;;;;;;;;;;4989369;28;20038;-79
2021/12/16 10:44:25;;;;;;;25.23;13.48;;;;;;;;;;4994433;28;20034;-78
2021/12/16 10:47:01;;;;;;;23.73;13.75;;;;;;;;;;4994980;28;20043;-78
2021/12/16 10:49:39;;;;;;;28.75;14.30;;;;;;;;;;4983363;28;20042;-79
2021/12/16 10:52:11;;;;;;;24.80;13.98;;;;;;;;;;4991589;28;20049;-78
2021/12/16 10:54:38;;;;;;;21.83;13.98;;;;;;;;;;4990120;28;20039;-78
2021/12/16 10:57:10;;;;;;;25.45;14.18;;;;;;;;;;4991379;28;20489;-78
2021/12/16 10:59:43;;;;;;;26.30;15.38;;;;;;;;;;4991762;28;20061;-79
2021/12/16 11:02:15;;;;;;;26.05;15.10;;;;;;;;;;4993492;28;20053;-78
2021/12/16 11:04:45;;;;;;;27.35;15.25;;;;;;;;;;4995442;28;20038;-79
2021/12/16 11:07:38;;;;;;;23.60;14.05;;;;;;;;;;4995627;28;20506;-70
2021/12/16 11:10:16;;;;;;;23.80;14.23;;;;;;;;;;4993709;28;20053;-78
2021/12/16 11:13:02;;;;;;;27.17;14.50;;;;;;;;;;4992817;28;20496;-77
2021/12/16 11:15:33;;;;;;;25.67;14.30;;;;;;;;;;4992706;28;20054;-80
2021/12/16 11:18:05;;;;;;;26.75;14.43;;;;;;;;;;4991771;28;20053;-79
2021/12/16 11:20:39;;;;;;;25.63;15.07;;;;;;;;;;4993259;28;20034;-78
2021/12/16 11:23:15;;;;;;;24.75;14.63;;;;;;;;;;4992539;28;20022;-78
2021/12/16 11:25:52;;;;;;;27.20;15.77;;;;;;;;;;4991095;28;20045;-77
2021/12/16 11:28:24;;;;;;;28.25;14.45;;;;;;;;;;4990764;28;20461;-78
2021/12/16 11:30:57;;;;;;;25.92;15.23;;;;;;;;;;4992844;28;20042;-79
2021/12/16 11:33:26;;;;;;;23.50;14.30;;;;;;;;;;4993509;28;20045;-78
2021/12/16 11:35:56;;;;;;;25.52;15.18;;;;;;;;;;4992934;28;20520;-79
2021/12/16 11:38:50;;;;;;;25.85;15.18;;;;;;;;;;4992059;28;20445;-78
2021/12/16 11:41:19;;;;;;;27.67;15.55;;;;;;;;;;4982688;28;20049;-79
2021/12/16 11:44:00;;;;;;;25.92;15.48;;;;;;;;;;4993621;28;20033;-78
2021/12/16 11:46:29;;;;;;;26.23;15.38;;;;;;;;;;4988367;28;20043;-78
2021/12/16 11:48:59;;;;;;;24.13;15.10;;;;;;;;;;4984096;28;20039;-79
2021/12/16 11:51:41;;;;;;;26.70;15.97;;;;;;;;;;4994145;28;20110;-79
2021/12/16 11:54:30;;;;;;;29.50;15.13;;;;;;;;;;4978482;28;20046;-78
2021/12/16 11:57:21;;;;;;;26.40;15.32;;;;;;;;;;4992823;28;20039;-78
2021/12/16 11:59:52;;;;;;;24.30;15.17;;;;;;;;;;4976883;28;20046;-78
2021/12/16 12:02:31;;;;;;;24.17;14.30;;;;;;;;;;4974626;28;20045;-78
2021/12/16 12:05:23;;;;;;;25.63;14.82;;;;;;;;;;4974485;28;20043;-79
2021/12/16 12:07:51;;;;;;;;;;;;;;;;;;4978811;28;20500;-79
2021/12/16 12:10:43;;;;;;;23.95;14.35;;;;;;;;;;4984748;28;20292;-78
2021/12/16 12:13:13;;;;;;;26.33;15.43;;;;;;;;;;4974056;28;20069;-78
2021/12/16 12:15:53;;;;;;;25.17;15.18;;;;;;;;;;4987541;28;20050;-78
2021/12/16 12:18:39;;;;;;;26.67;16.02;;;;;;;;;;4988064;28;20043;-78
2021/12/16 12:21:17;;;;;;;25.55;14.82;;;;;;;;;;4993083;28;20496;-78
2021/12/16 12:23:44;;;;;;;26.90;15.27;;;;;;;;;;4990857;28;20050;-78
2021/12/16 12:26:16;;;;;;;26.15;15.00;;;;;;;;;;4989798;28;20054;-79
2021/12/16 12:28:51;;;;;;;27.05;15.93;;;;;;;;;;4993485;28;20038;-79
2021/12/16 12:31:20;;;;;;;27.73;15.80;;;;;;;;;;4991719;28;20030;-79
2021/12/16 12:33:46;;;;;;;25.73;15.38;;;;;;;;;;5007372;28;20046;-79
2021/12/16 12:36:15;;;;;;;26.75;15.23;;;;;;;;;;4992807;28;20047;-79
2021/12/16 12:38:42;;;;;;;24.13;15.07;;;;;;;;;;4993662;28;20050;-79
2021/12/16 12:41:08;;;;;;;26.00;15.88;;;;;;;;;;4993072;28;20381;-79
2021/12/16 12:43:36;;;;;;;25.35;14.93;;;;;;;;;;4993455;28;20047;-79
2021/12/16 12:46:05;;;;;;;24.55;15.02;;;;;;;;;;4992319;28;20516;-79
2021/12/16 12:48:34;;;;;;;25.85;15.25;;;;;;;;;;4992652;28;20042;-79
2021/12/16 12:51:02;;;;;;;26.25;16.20;;;;;;;;;;4992645;28;20057;-79
2021/12/16 12:53:46;;;;;;;26.55;15.25;;;;;;;;;;4992162;28;20057;-79
2021/12/16 12:56:29;;;;;;;25.75;14.52;;;;;;;;;;4973834;28;20042;-79
2021/12/16 12:59:04;;;;;;;28.38;14.73;;;;;;;;;;4973992;28;20043;-78
2021/12/16 13:01:40;;;;;;;27.30;16.77;;;;;;;;;;4992316;28;20049;-79
2021/12/16 13:04:29;;;;;;;25.48;15.48;;;;;;;;;;4990857;28;20041;-79
2021/12/16 13:07:06;;;;;;;27.52;16.13;;;;;;;;;;4991504;28;20041;-79
2021/12/16 13:09:34;;;;;;;28.35;16.25;;;;;;;;;;4991996;28;20038;-79
2021/12/16 13:12:04;;;;;;;25.95;15.32;;;;;;;;;;4992951;28;20053;-79
2021/12/16 13:14:50;;;;;;;25.90;16.17;;;;;;;;;;4989420;28;20057;-79
2021/12/16 13:32:10;;;;;;;29.60;15.77;;;;;;;;;;4986434;28;20412;-79
2021/12/16 13:35:31;;;;;;;30.27;15.27;;;;;;;;;;4973943;28;20057;-79
2021/12/16 13:37:45;;;;;;;27.52;15.27;;;;;;;;;;4992694;28;20409;-79
2021/12/16 13:40:14;;;;;;;27.83;14.30;;;;;;;;;;4982207;28;20046;-79
2021/12/16 13:42:56;;;;;;;28.63;15.15;;;;;;;;;;4988376;28;20481;-78
2021/12/16 13:45:28;;;;;;;24.15;14.70;;;;;;;;;;4985576;28;20624;-79
2021/12/16 14:10:18;;;;;;;24.93;14.00;;;;;;;;;;4992477;28;20053;-79
2021/12/16 14:16:55;;;;;;;27.20;15.07;;;;;;;;;;5008508;28;20527;-79
2021/12/16 14:25:29;;;;;;;26.80;14.18;;;;;;;;;;4991213;28;20054;-79
2021/12/16 14:50:19;;;;;;;26.38;15.88;;;;;;;;;;4993748;28;20041;-79
2021/12/16 14:52:45;;;;;;;25.20;15.48;;;;;;;;;;4991463;28;20500;-79
2021/12/16 14:55:13;;;;;;;28.58;15.07;;;;;;;;;;4991207;28;20472;-79
2021/12/16 14:57:44;;;;;;;24.45;14.93;;;;;;;;;;4991343;28;20480;-79
2021/12/16 15:00:36;;;;;;;26.77;14.60;;;;;;;;;;4991079;28;20620;-79
2021/12/16 15:03:22;;;;;;;28.33;14.75;;;;;;;;;;4991710;28;20400;-79
2021/12/16 15:06:05;;;;;;;30.58;15.63;;;;;;;;;;4990784;28;20073;-79
2021/12/16 15:08:46;;;;;;;26.52;14.98;;;;;;;;;;4991546;28;20046;-79
2021/12/16 15:11:25;;;;;;;24.77;14.77;;;;;;;;;;4991314;28;20050;-79
2021/12/16 15:13:57;;;;;;;25.77;14.95;;;;;;;;;;4993428;28;20050;-79
2021/12/16 15:16:46;;;;;;;27.33;14.63;;;;;;;;;;4995125;28;20573;-79
2021/12/16 15:44:21;;;;;;;25.23;14.88;;;;;;;;;;5013936;28;20048;-79
2021/12/16 15:46:49;;;;;;;22.15;14.70;;;;;;;;;;5020027;28;20034;-79
2021/12/16 15:49:15;;;;;;;24.40;15.30;;;;;;;;;;5003141;28;20027;-79
2021/12/16 15:51:41;;;;;;;29.08;16.90;;;;;;;;;;5019516;28;20034;-79
2021/12/16 15:54:10;;;;;;;29.35;15.98;;;;;;;;;;5016257;28;20034;-79
2021/12/16 15:56:41;;;;;;;24.65;15.60;;;;;;;;;;5019921;28;20040;-79
2021/12/16 15:59:10;;;;;;;26.10;15.88;;;;;;;;;;5019620;28;20022;-79
2021/12/16 16:01:41;;;;;;;28.83;17.15;;;;;;;;;;5019349;28;20026;-79
2021/12/16 16:04:13;;;;;;;26.85;17.25;;;;;;;;;;5019553;28;20046;-79
2021/12/16 16:06:44;;;;;;;28.52;15.80;;;;;;;;;;5018776;28;20050;-79
2021/12/16 16:09:12;;;;;;;23.95;15.27;;;;;;;;;;5014876;28;20046;-79
2021/12/16 16:11:46;;;;;;;26.55;16.10;;;;;;;;;;5017782;28;20023;-79
2021/12/16 16:14:13;;;;;;;26.48;16.73;;;;;;;;;;5019428;28;20032;-79
2021/12/16 16:16:47;;;;;;;32.00;16.38;;;;;;;;;;5019610;28;20040;-79
2021/12/16 16:19:25;;;;;;;24.42;15.77;;;;;;;;;;5007713;28;20050;-79
2021/12/16 16:21:53;;;;;;;26.20;16.45;;;;;;;;;;5000788;28;20042;-79
2021/12/16 16:24:24;;;;;;;26.42;15.98;;;;;;;;;;4997274;28;20512;-78
2021/12/16 16:26:53;;;;;;;27.52;16.50;;;;;;;;;;4997917;28;20504;-78
2021/12/16 16:29:22;;;;;;;25.25;16.45;;;;;;;;;;4999674;28;20034;-79
2021/12/16 16:31:49;;;;;;;29.27;17.95;;;;;;;;;;4999185;28;20042;-78
2021/12/16 16:34:19;;;;;;;26.58;15.88;;;;;;;;;;4999472;28;20054;-78
2021/12/16 16:36:49;;;;;;;26.35;15.95;;;;;;;;;;4996913;28;20046;-80
2021/12/16 16:39:19;;;;;;;24.83;15.70;;;;;;;;;;4998327;28;20030;-79
2021/12/16 16:41:55;;;;;;;24.83;16.80;;;;;;;;;;4994259;28;20045;-79
2021/12/16 16:44:24;;;;;;;27.15;16.65;;;;;;;;;;4996068;28;20034;-78
2021/12/16 16:47:02;;;;;;;25.90;15.60;;;;;;;;;;5000000;28;20049;-79
2021/12/16 16:49:48;;;;;;;25.15;15.10;;;;;;;;;;4996130;28;20043;-79
2021/12/16 16:52:29;;;;;;;24.85;15.38;;;;;;;;;;4996219;28;20053;-79
2021/12/16 16:55:10;;;;;;;26.75;15.95;;;;;;;;;;4999332;28;20046;-80
2021/12/16 16:57:40;;;;;;;26.85;16.40;;;;;;;;;;5004003;28;20041;-83
2021/12/16 17:00:26;;;;;;;23.52;14.65;;;;;;;;;;4997405;28;20042;-79
2021/12/16 17:02:55;;;;;;;23.65;15.15;;;;;;;;;;4989196;28;20097;-75
2021/12/16 17:05:27;;;;;;;25.13;14.25;;;;;;;;;;4975639;28;20046;-74
2021/12/16 17:08:12;;;;;;;22.95;15.13;;;;;;;;;;4981879;28;20043;-73
2021/12/16 17:10:43;;;;;;;26.33;16.05;;;;;;;;;;4989330;28;20632;-73
2021/12/16 17:13:13;;;;;;;26.20;16.33;;;;;;;;;;4989316;28;20030;-73
2021/12/16 17:18:33;;;;;;;29.52;16.92;;;;;;;;;;4962821;28;20038;-75
2021/12/16 17:21:12;;;;;;;29.25;16.73;;;;;;;;;;4989904;28;20034;-76
2021/12/16 17:23:38;;;;;;;30.48;17.33;;;;;;;;;;4990648;28;20027;-76
2021/12/16 17:26:21;;;;;;;30.95;16.27;;;;;;;;;;4992806;28;20392;-76
2021/12/16 17:29:18;;;;;;;27.15;16.08;;;;;;;;;;4992231;28;20042;-76
2021/12/16 17:31:50;;;;;;;31.80;16.40;;;;;;;;;;4992913;28;20034;-77
2021/12/16 17:34:18;;;;;;;27.25;16.92;;;;;;;;;;4986102;28;20046;-76
2021/12/16 17:36:59;;;;;;;29.90;16.88;;;;;;;;;;4978446;28;20393;-76
2021/12/16 17:39:38;;;;;;;23.17;15.05;;;;;;;;;;4972900;28;20038;-76
2021/12/16 17:42:29;;;;;;;23.90;14.85;;;;;;;;;;5005388;28;20484;-76
2021/12/16 17:44:58;;;;;;;;;;;;;;;;;;4972198;28;20045;-76
2021/12/16 17:47:28;;;;;;;31.35;16.52;;;;;;;;;;4989426;28;19968;-74
2021/12/16 17:49:55;;;;;;;30.33;16.63;;;;;;;;;;4992541;28;20042;-75
2021/12/16 17:52:31;;;;;;;30.05;17.60;;;;;;;;;;4992680;28;20041;-76
2021/12/16 17:55:00;;;;;;;29.23;17.60;;;;;;;;;;4992875;28;20058;-74
2021/12/16 17:57:34;;;;;;;28.48;17.55;;;;;;;;;;4993421;28;20113;-76
2021/12/16 18:00:03;;;;;;;29.58;17.52;;;;;;;;;;4991651;28;20074;-76
2021/12/16 18:02:29;;;;;;;36.03;18.40;;;;;;;;;;4990991;28;20492;-78
2021/12/16 18:05:00;;;;;;;29.77;16.92;;;;;;;;;;5015657;28;20046;-74
2021/12/16 18:07:28;;;;;;;29.88;17.02;;;;;;;;;;5003071;28;20041;-75
2021/12/16 18:09:58;;;;;;;27.35;16.48;;;;;;;;;;5010833;28;20041;-75
2021/12/16 18:12:30;;;;;;;27.70;17.10;;;;;;;;;;5009839;28;20037;-77
2021/12/16 18:15:17;;;;;;;31.77;16.88;;;;;;;;;;5006818;28;20389;-73
2021/12/16 18:17:51;;;;;;;31.63;16.77;;;;;;;;;;4989057;28;20042;-73
2021/12/16 18:20:41;;;;;;;27.27;16.40;;;;;;;;;;4989192;28;20046;-73
2021/12/16 18:23:15;;;;;;;29.92;18.05;;;;;;;;;;4993318;28;20041;-76
2021/12/16 18:25:50;;;;;;;27.10;16.23;;;;;;;;;;4988791;28;20515;-77
2021/12/16 18:28:23;;;;;;;25.20;15.90;;;;;;;;;;4986854;28;20050;-76
2021/12/16 18:30:52;;;;;;;30.33;16.85;;;;;;;;;;4987341;28;20026;-78
2021/12/16 18:33:25;;;;;;;28.88;16.45;;;;;;;;;;4988869;28;20038;-73
2021/12/16 18:35:57;;;;;;;30.45;16.50;;;;;;;;;;4987348;28;20489;-76
2021/12/16 18:38:31;;;;;;;28.45;16.55;;;;;;;;;;4991804;28;20507;-73
2021/12/16 18:41:05;;;;;;;29.38;16.27;;;;;;;;;;4992276;28;20042;-74
2021/12/16 18:43:32;;;;;;;25.00;15.20;;;;;;;;;;4991193;28;20038;-80
2021/12/16 18:46:01;;;;;;;29.25;15.27;;;;;;;;;;4995331;28;20041;-75
2021/12/16 18:51:23;;;;;;;28.13;17.02;;;;;;;;;;5001254;28;20045;-75
2021/12/16 18:56:39;;;;;;;25.92;16.00;;;;;;;;;;4996640;28;20038;-76
2021/12/16 18:59:08;;;;;;;28.17;16.40;;;;;;;;;;4994871;28;20038;-76